sensor_id;sensor_type;location;lat;lon;timestamp;P1;durP1;ratioP1;P2;durP2;ratioP2
32633;SDS011;19043;51.012;5.648;2022-12-10T00:00:35;65.38;;;38.92;;
32633;SDS011;19043;51.012;5.648;2022-12-10T00:03:00;63.88;;;40.85;;
32633;SDS011;19043;51.012;5.648;2022-12-10T00:05:26;61.55;;;41.53;;
32633;SDS011;19043;51.012;5.648;2022-12-10T00:07:51;62.53;;;41.38;;
32633;SDS011;19043;51.012;5.648;2022-12-10T00:10:17;63.45;;;40.10;;
32633;SDS011;19043;51.012;5.648;2022-12-10T00:12:42;62.63;;;40.10;;
32633;SDS011;19043;51.012;5.648;2022-12-10T00:15:07;67.95;;;42.75;;
32633;SDS011;19043;51.012;5.648;2022-12-10T00:17:32;64.78;;;40.53;;
32633;SDS011;19043;51.012;5.648;2022-12-10T00:19:58;67.38;;;41.80;;
32633;SDS011;19043;51.012;5.648;2022-12-10T00:22:23;69.10;;;44.00;;
32633;SDS011;19043;51.012;5.648;2022-12-10T00:24:48;75.43;;;44.75;;
32633;SDS011;19043;51.012;5.648;2022-12-10T00:27:13;63.92;;;42.10;;
32633;SDS011;19043;51.012;5.648;2022-12-10T00:29:39;63.90;;;40.20;;
32633;SDS011;19043;51.012;5.648;2022-12-10T00:32:04;68.43;;;43.13;;
32633;SDS011;19043;51.012;5.648;2022-12-10T00:34:31;63.83;;;40.33;;
32633;SDS011;19043;51.012;5.648;2022-12-10T00:36:56;68.25;;;41.80;;
32633;SDS011;19043;51.012;5.648;2022-12-10T00:39:21;70.13;;;41.95;;
32633;SDS011;19043;51.012;5.648;2022-12-10T00:41:46;68.50;;;43.03;;
32633;SDS011;19043;51.012;5.648;2022-12-10T00:44:12;64.20;;;41.35;;
32633;SDS011;19043;51.012;5.648;2022-12-10T00:46:37;69.28;;;41.67;;
32633;SDS011;19043;51.012;5.648;2022-12-10T00:49:03;64.68;;;42.85;;
32633;SDS011;19043;51.012;5.648;2022-12-10T00:51:28;73.10;;;43.60;;
32633;SDS011;19043;51.012;5.648;2022-12-10T00:53:54;66.40;;;43.08;;
32633;SDS011;19043;51.012;5.648;2022-12-10T00:56:21;63.55;;;40.30;;
32633;SDS011;19043;51.012;5.648;2022-12-10T00:58:47;69.10;;;42.00;;
32633;SDS011;19043;51.012;5.648;2022-12-10T01:03:38;69.93;;;42.10;;
32633;SDS011;19043;51.012;5.648;2022-12-10T01:06:17;70.65;;;43.95;;
32633;SDS011;19043;51.012;5.648;2022-12-10T01:08:43;61.08;;;40.60;;
32633;SDS011;19043;51.012;5.648;2022-12-10T01:11:09;74.25;;;42.63;;
32633;SDS011;19043;51.012;5.648;2022-12-10T01:13:35;72.82;;;42.75;;
32633;SDS011;19043;51.012;5.648;2022-12-10T01:16:01;73.00;;;42.08;;
32633;SDS011;19043;51.012;5.648;2022-12-10T01:18:27;70.90;;;43.25;;
32633;SDS011;19043;51.012;5.648;2022-12-10T01:20:52;77.18;;;43.33;;
32633;SDS011;19043;51.012;5.648;2022-12-10T01:23:17;80.63;;;43.63;;
32633;SDS011;19043;51.012;5.648;2022-12-10T01:25:43;67.05;;;43.55;;
32633;SDS011;19043;51.012;5.648;2022-12-10T01:28:08;82.55;;;45.60;;
32633;SDS011;19043;51.012;5.648;2022-12-10T01:30:33;72.25;;;45.60;;
32633;SDS011;19043;51.012;5.648;2022-12-10T01:32:58;74.47;;;44.72;;
32633;SDS011;19043;51.012;5.648;2022-12-10T01:35:24;69.68;;;44.53;;
32633;SDS011;19043;51.012;5.648;2022-12-10T01:37:49;75.00;;;42.13;;
32633;SDS011;19043;51.012;5.648;2022-12-10T01:40:14;74.32;;;46.92;;
32633;SDS011;19043;51.012;5.648;2022-12-10T01:42:39;68.93;;;44.25;;
32633;SDS011;19043;51.012;5.648;2022-12-10T01:45:06;76.90;;;47.28;;
32633;SDS011;19043;51.012;5.648;2022-12-10T01:47:33;81.00;;;48.28;;
32633;SDS011;19043;51.012;5.648;2022-12-10T01:49:59;79.10;;;46.00;;
32633;SDS011;19043;51.012;5.648;2022-12-10T01:52:26;80.43;;;48.13;;
32633;SDS011;19043;51.012;5.648;2022-12-10T01:54:51;74.88;;;47.15;;
32633;SDS011;19043;51.012;5.648;2022-12-10T01:57:23;84.85;;;49.30;;
32633;SDS011;19043;51.012;5.648;2022-12-10T01:59:56;83.20;;;51.13;;
32633;SDS011;19043;51.012;5.648;2022-12-10T02:05:22;95.82;;;51.63;;
32633;SDS011;19043;51.012;5.648;2022-12-10T02:10:47;92.03;;;54.38;;
32633;SDS011;19043;51.012;5.648;2022-12-10T02:13:36;85.25;;;48.22;;
32633;SDS011;19043;51.012;5.648;2022-12-10T02:16:25;89.72;;;48.95;;
32633;SDS011;19043;51.012;5.648;2022-12-10T02:18:55;82.32;;;48.15;;
32633;SDS011;19043;51.012;5.648;2022-12-10T02:21:34;78.03;;;46.22;;
32633;SDS011;19043;51.012;5.648;2022-12-10T02:24:02;82.32;;;49.05;;
32633;SDS011;19043;51.012;5.648;2022-12-10T02:29:10;82.18;;;50.22;;
32633;SDS011;19043;51.012;5.648;2022-12-10T02:31:37;79.65;;;47.15;;
32633;SDS011;19043;51.012;5.648;2022-12-10T02:34:04;82.78;;;48.78;;
32633;SDS011;19043;51.012;5.648;2022-12-10T02:36:32;76.63;;;46.50;;
32633;SDS011;19043;51.012;5.648;2022-12-10T02:39:00;85.75;;;50.10;;
32633;SDS011;19043;51.012;5.648;2022-12-10T02:41:28;75.75;;;50.22;;
32633;SDS011;19043;51.012;5.648;2022-12-10T02:43:55;75.50;;;48.03;;
32633;SDS011;19043;51.012;5.648;2022-12-10T02:46:21;77.03;;;47.20;;
32633;SDS011;19043;51.012;5.648;2022-12-10T02:48:48;79.07;;;46.47;;
32633;SDS011;19043;51.012;5.648;2022-12-10T02:51:14;78.78;;;45.17;;
32633;SDS011;19043;51.012;5.648;2022-12-10T02:53:43;85.55;;;47.35;;
32633;SDS011;19043;51.012;5.648;2022-12-10T02:56:20;72.85;;;46.08;;
32633;SDS011;19043;51.012;5.648;2022-12-10T02:59:09;66.22;;;43.70;;
32633;SDS011;19043;51.012;5.648;2022-12-10T03:04:08;75.30;;;44.33;;
32633;SDS011;19043;51.012;5.648;2022-12-10T03:06:37;70.32;;;45.38;;
32633;SDS011;19043;51.012;5.648;2022-12-10T03:09:12;64.50;;;44.65;;
32633;SDS011;19043;51.012;5.648;2022-12-10T03:11:38;76.30;;;46.65;;
32633;SDS011;19043;51.012;5.648;2022-12-10T03:14:09;74.03;;;45.03;;
32633;SDS011;19043;51.012;5.648;2022-12-10T03:16:44;81.18;;;46.05;;
32633;SDS011;19043;51.012;5.648;2022-12-10T03:19:12;80.20;;;45.67;;
32633;SDS011;19043;51.012;5.648;2022-12-10T03:21:39;80.18;;;47.38;;
32633;SDS011;19043;51.012;5.648;2022-12-10T03:24:06;73.53;;;46.25;;
32633;SDS011;19043;51.012;5.648;2022-12-10T03:26:31;82.93;;;49.60;;
32633;SDS011;19043;51.012;5.648;2022-12-10T03:29:00;75.50;;;49.70;;
32633;SDS011;19043;51.012;5.648;2022-12-10T03:31:26;86.32;;;49.45;;
32633;SDS011;19043;51.012;5.648;2022-12-10T03:33:52;87.13;;;48.92;;
32633;SDS011;19043;51.012;5.648;2022-12-10T03:36:19;82.15;;;50.65;;
32633;SDS011;19043;51.012;5.648;2022-12-10T03:38:45;84.35;;;50.20;;
32633;SDS011;19043;51.012;5.648;2022-12-10T03:41:10;80.75;;;49.47;;
32633;SDS011;19043;51.012;5.648;2022-12-10T03:43:35;78.65;;;50.05;;
32633;SDS011;19043;51.012;5.648;2022-12-10T03:46:01;78.90;;;47.42;;
32633;SDS011;19043;51.012;5.648;2022-12-10T03:48:26;80.22;;;45.53;;
32633;SDS011;19043;51.012;5.648;2022-12-10T03:50:52;68.93;;;44.50;;
32633;SDS011;19043;51.012;5.648;2022-12-10T03:53:17;62.83;;;41.17;;
32633;SDS011;19043;51.012;5.648;2022-12-10T03:55:43;75.22;;;45.00;;
32633;SDS011;19043;51.012;5.648;2022-12-10T03:58:08;72.90;;;44.13;;
32633;SDS011;19043;51.012;5.648;2022-12-10T04:00:33;71.57;;;43.17;;
32633;SDS011;19043;51.012;5.648;2022-12-10T04:02:58;80.65;;;47.65;;
32633;SDS011;19043;51.012;5.648;2022-12-10T04:05:24;78.95;;;48.35;;
32633;SDS011;19043;51.012;5.648;2022-12-10T04:07:49;84.20;;;50.00;;
32633;SDS011;19043;51.012;5.648;2022-12-10T04:10:14;79.68;;;47.03;;
32633;SDS011;19043;51.012;5.648;2022-12-10T04:12:39;77.53;;;45.80;;
32633;SDS011;19043;51.012;5.648;2022-12-10T04:15:05;78.03;;;45.13;;
32633;SDS011;19043;51.012;5.648;2022-12-10T04:17:49;72.68;;;44.63;;
32633;SDS011;19043;51.012;5.648;2022-12-10T04:20:14;83.88;;;47.28;;
32633;SDS011;19043;51.012;5.648;2022-12-10T04:22:58;74.68;;;46.85;;
32633;SDS011;19043;51.012;5.648;2022-12-10T04:25:42;77.90;;;45.47;;
32633;SDS011;19043;51.012;5.648;2022-12-10T04:28:25;77.43;;;46.50;;
32633;SDS011;19043;51.012;5.648;2022-12-10T04:30:51;80.10;;;47.60;;
32633;SDS011;19043;51.012;5.648;2022-12-10T04:33:16;81.95;;;46.00;;
32633;SDS011;19043;51.012;5.648;2022-12-10T04:35:41;81.35;;;47.97;;
32633;SDS011;19043;51.012;5.648;2022-12-10T04:38:07;77.28;;;48.47;;
32633;SDS011;19043;51.012;5.648;2022-12-10T04:40:32;79.28;;;47.25;;
32633;SDS011;19043;51.012;5.648;2022-12-10T04:42:57;81.15;;;50.10;;
32633;SDS011;19043;51.012;5.648;2022-12-10T04:45:22;86.45;;;49.10;;
32633;SDS011;19043;51.012;5.648;2022-12-10T04:47:47;70.25;;;45.40;;
32633;SDS011;19043;51.012;5.648;2022-12-10T04:50:13;81.80;;;49.17;;
32633;SDS011;19043;51.012;5.648;2022-12-10T04:52:38;90.15;;;50.50;;
32633;SDS011;19043;51.012;5.648;2022-12-10T04:55:03;81.28;;;48.50;;
32633;SDS011;19043;51.012;5.648;2022-12-10T04:57:29;79.40;;;49.38;;
32633;SDS011;19043;51.012;5.648;2022-12-10T04:59:54;77.53;;;46.88;;
32633;SDS011;19043;51.012;5.648;2022-12-10T05:02:19;81.25;;;48.83;;
32633;SDS011;19043;51.012;5.648;2022-12-10T05:04:44;75.47;;;48.13;;
32633;SDS011;19043;51.012;5.648;2022-12-10T05:07:10;72.82;;;47.10;;
32633;SDS011;19043;51.012;5.648;2022-12-10T05:09:35;82.82;;;47.47;;
32633;SDS011;19043;51.012;5.648;2022-12-10T05:12:00;73.13;;;48.33;;
32633;SDS011;19043;51.012;5.648;2022-12-10T05:14:25;78.97;;;47.25;;
32633;SDS011;19043;51.012;5.648;2022-12-10T05:16:51;75.10;;;48.45;;
32633;SDS011;19043;51.012;5.648;2022-12-10T05:19:16;78.20;;;48.25;;
32633;SDS011;19043;51.012;5.648;2022-12-10T05:21:44;78.40;;;50.05;;
32633;SDS011;19043;51.012;5.648;2022-12-10T05:24:28;85.43;;;50.00;;
32633;SDS011;19043;51.012;5.648;2022-12-10T05:26:53;71.03;;;44.17;;
32633;SDS011;19043;51.012;5.648;2022-12-10T05:29:18;84.80;;;46.75;;
32633;SDS011;19043;51.012;5.648;2022-12-10T05:31:44;75.00;;;46.55;;
32633;SDS011;19043;51.012;5.648;2022-12-10T05:34:09;74.68;;;46.42;;
32633;SDS011;19043;51.012;5.648;2022-12-10T05:36:35;78.40;;;47.22;;
32633;SDS011;19043;51.012;5.648;2022-12-10T05:39:00;78.38;;;49.30;;
32633;SDS011;19043;51.012;5.648;2022-12-10T05:41:27;74.78;;;47.50;;
32633;SDS011;19043;51.012;5.648;2022-12-10T05:43:55;80.72;;;48.38;;
32633;SDS011;19043;51.012;5.648;2022-12-10T05:46:21;75.45;;;48.40;;
32633;SDS011;19043;51.012;5.648;2022-12-10T05:48:47;82.35;;;47.30;;
32633;SDS011;19043;51.012;5.648;2022-12-10T05:51:14;77.47;;;47.33;;
32633;SDS011;19043;51.012;5.648;2022-12-10T05:53:39;85.65;;;49.08;;
32633;SDS011;19043;51.012;5.648;2022-12-10T05:56:06;75.32;;;46.33;;
32633;SDS011;19043;51.012;5.648;2022-12-10T05:58:32;78.90;;;46.60;;
32633;SDS011;19043;51.012;5.648;2022-12-10T06:00:57;70.35;;;45.95;;
32633;SDS011;19043;51.012;5.648;2022-12-10T06:03:23;72.43;;;45.20;;
32633;SDS011;19043;51.012;5.648;2022-12-10T06:05:48;75.10;;;45.60;;
32633;SDS011;19043;51.012;5.648;2022-12-10T06:08:14;81.75;;;47.95;;
32633;SDS011;19043;51.012;5.648;2022-12-10T06:10:39;86.28;;;50.00;;
32633;SDS011;19043;51.012;5.648;2022-12-10T06:13:04;86.47;;;49.08;;
32633;SDS011;19043;51.012;5.648;2022-12-10T06:15:30;83.93;;;49.20;;
32633;SDS011;19043;51.012;5.648;2022-12-10T06:17:55;83.20;;;50.55;;
32633;SDS011;19043;51.012;5.648;2022-12-10T06:20:21;87.90;;;55.55;;
32633;SDS011;19043;51.012;5.648;2022-12-10T06:22:46;90.13;;;53.50;;
32633;SDS011;19043;51.012;5.648;2022-12-10T06:25:11;90.90;;;52.20;;
32633;SDS011;19043;51.012;5.648;2022-12-10T06:27:36;87.72;;;55.75;;
32633;SDS011;19043;51.012;5.648;2022-12-10T06:30:02;94.40;;;53.67;;
32633;SDS011;19043;51.012;5.648;2022-12-10T06:32:27;92.43;;;54.08;;
32633;SDS011;19043;51.012;5.648;2022-12-10T06:34:52;87.53;;;54.47;;
32633;SDS011;19043;51.012;5.648;2022-12-10T06:37:18;93.25;;;49.83;;
32633;SDS011;19043;51.012;5.648;2022-12-10T06:39:43;80.85;;;50.80;;
32633;SDS011;19043;51.012;5.648;2022-12-10T06:42:09;86.85;;;50.60;;
32633;SDS011;19043;51.012;5.648;2022-12-10T06:44:34;85.03;;;49.78;;
32633;SDS011;19043;51.012;5.648;2022-12-10T06:46:59;84.70;;;50.85;;
32633;SDS011;19043;51.012;5.648;2022-12-10T06:49:25;85.55;;;50.60;;
32633;SDS011;19043;51.012;5.648;2022-12-10T06:51:50;77.93;;;48.25;;
32633;SDS011;19043;51.012;5.648;2022-12-10T06:54:15;80.90;;;50.35;;
32633;SDS011;19043;51.012;5.648;2022-12-10T06:56:40;84.18;;;50.60;;
32633;SDS011;19043;51.012;5.648;2022-12-10T06:59:06;73.32;;;46.85;;
32633;SDS011;19043;51.012;5.648;2022-12-10T07:01:31;96.47;;;52.45;;
32633;SDS011;19043;51.012;5.648;2022-12-10T07:03:57;78.95;;;50.53;;
32633;SDS011;19043;51.012;5.648;2022-12-10T07:06:22;94.53;;;49.42;;
32633;SDS011;19043;51.012;5.648;2022-12-10T07:08:48;86.53;;;50.70;;
32633;SDS011;19043;51.012;5.648;2022-12-10T07:11:14;80.38;;;48.78;;
32633;SDS011;19043;51.012;5.648;2022-12-10T07:13:40;78.03;;;49.20;;
32633;SDS011;19043;51.012;5.648;2022-12-10T07:16:12;82.82;;;48.33;;
32633;SDS011;19043;51.012;5.648;2022-12-10T07:18:37;82.53;;;48.50;;
32633;SDS011;19043;51.012;5.648;2022-12-10T07:21:12;90.22;;;51.50;;
32633;SDS011;19043;51.012;5.648;2022-12-10T07:26:02;80.83;;;47.33;;
32633;SDS011;19043;51.012;5.648;2022-12-10T07:28:27;86.78;;;49.47;;
32633;SDS011;19043;51.012;5.648;2022-12-10T07:30:59;88.93;;;51.20;;
32633;SDS011;19043;51.012;5.648;2022-12-10T07:33:24;92.90;;;50.90;;
32633;SDS011;19043;51.012;5.648;2022-12-10T07:35:50;86.43;;;52.00;;
32633;SDS011;19043;51.012;5.648;2022-12-10T07:38:15;84.75;;;50.58;;
32633;SDS011;19043;51.012;5.648;2022-12-10T07:40:40;81.38;;;50.95;;
32633;SDS011;19043;51.012;5.648;2022-12-10T07:43:05;80.30;;;47.75;;
32633;SDS011;19043;51.012;5.648;2022-12-10T07:45:31;91.97;;;51.45;;
32633;SDS011;19043;51.012;5.648;2022-12-10T07:47:57;80.25;;;46.72;;
32633;SDS011;19043;51.012;5.648;2022-12-10T07:50:22;95.60;;;53.13;;
32633;SDS011;19043;51.012;5.648;2022-12-10T07:52:47;85.47;;;48.47;;
32633;SDS011;19043;51.012;5.648;2022-12-10T07:55:12;85.25;;;50.08;;
32633;SDS011;19043;51.012;5.648;2022-12-10T07:57:38;90.25;;;50.17;;
32633;SDS011;19043;51.012;5.648;2022-12-10T08:00:03;87.50;;;47.63;;
32633;SDS011;19043;51.012;5.648;2022-12-10T08:02:29;94.50;;;51.67;;
32633;SDS011;19043;51.012;5.648;2022-12-10T08:04:54;88.57;;;49.33;;
32633;SDS011;19043;51.012;5.648;2022-12-10T08:07:19;84.18;;;49.28;;
32633;SDS011;19043;51.012;5.648;2022-12-10T08:09:45;82.00;;;48.03;;
32633;SDS011;19043;51.012;5.648;2022-12-10T08:12:10;94.88;;;52.28;;
32633;SDS011;19043;51.012;5.648;2022-12-10T08:14:35;88.22;;;48.38;;
32633;SDS011;19043;51.012;5.648;2022-12-10T08:17:00;80.38;;;48.45;;
32633;SDS011;19043;51.012;5.648;2022-12-10T08:19:26;85.60;;;49.78;;
32633;SDS011;19043;51.012;5.648;2022-12-10T08:21:52;88.68;;;50.10;;
32633;SDS011;19043;51.012;5.648;2022-12-10T08:24:17;88.88;;;47.60;;
32633;SDS011;19043;51.012;5.648;2022-12-10T08:26:42;96.60;;;50.40;;
32633;SDS011;19043;51.012;5.648;2022-12-10T08:29:07;83.82;;;49.65;;
32633;SDS011;19043;51.012;5.648;2022-12-10T08:31:33;80.53;;;44.53;;
32633;SDS011;19043;51.012;5.648;2022-12-10T08:33:58;86.10;;;47.95;;
32633;SDS011;19043;51.012;5.648;2022-12-10T08:36:23;88.97;;;49.65;;
32633;SDS011;19043;51.012;5.648;2022-12-10T08:38:49;85.30;;;48.13;;
32633;SDS011;19043;51.012;5.648;2022-12-10T08:41:16;80.00;;;46.90;;
32633;SDS011;19043;51.012;5.648;2022-12-10T08:43:42;83.45;;;47.90;;
32633;SDS011;19043;51.012;5.648;2022-12-10T08:46:07;90.90;;;50.42;;
32633;SDS011;19043;51.012;5.648;2022-12-10T08:48:33;80.60;;;46.45;;
32633;SDS011;19043;51.012;5.648;2022-12-10T08:50:58;82.00;;;48.22;;
32633;SDS011;19043;51.012;5.648;2022-12-10T08:53:24;82.45;;;46.40;;
32633;SDS011;19043;51.012;5.648;2022-12-10T08:55:53;83.28;;;47.30;;
32633;SDS011;19043;51.012;5.648;2022-12-10T08:58:18;84.78;;;49.13;;
32633;SDS011;19043;51.012;5.648;2022-12-10T09:00:44;88.35;;;51.28;;
32633;SDS011;19043;51.012;5.648;2022-12-10T09:03:09;83.15;;;47.67;;
32633;SDS011;19043;51.012;5.648;2022-12-10T09:05:34;80.68;;;47.78;;
32633;SDS011;19043;51.012;5.648;2022-12-10T09:08:00;82.00;;;46.50;;
32633;SDS011;19043;51.012;5.648;2022-12-10T09:10:25;91.68;;;48.47;;
32633;SDS011;19043;51.012;5.648;2022-12-10T09:12:50;90.97;;;48.90;;
32633;SDS011;19043;51.012;5.648;2022-12-10T09:15:15;79.75;;;46.75;;
32633;SDS011;19043;51.012;5.648;2022-12-10T09:17:40;90.13;;;51.38;;
32633;SDS011;19043;51.012;5.648;2022-12-10T09:20:06;82.03;;;47.05;;
32633;SDS011;19043;51.012;5.648;2022-12-10T09:22:31;88.78;;;48.20;;
32633;SDS011;19043;51.012;5.648;2022-12-10T09:24:57;86.10;;;48.90;;
32633;SDS011;19043;51.012;5.648;2022-12-10T09:27:22;81.50;;;44.13;;
32633;SDS011;19043;51.012;5.648;2022-12-10T09:29:47;83.47;;;45.67;;
32633;SDS011;19043;51.012;5.648;2022-12-10T09:32:13;89.32;;;47.88;;
32633;SDS011;19043;51.012;5.648;2022-12-10T09:34:38;93.15;;;47.72;;
32633;SDS011;19043;51.012;5.648;2022-12-10T09:37:03;78.93;;;45.70;;
32633;SDS011;19043;51.012;5.648;2022-12-10T09:39:28;80.35;;;45.50;;
32633;SDS011;19043;51.012;5.648;2022-12-10T09:44:29;81.53;;;46.70;;
32633;SDS011;19043;51.012;5.648;2022-12-10T09:46:58;78.88;;;45.50;;
32633;SDS011;19043;51.012;5.648;2022-12-10T09:51:59;83.93;;;45.15;;
32633;SDS011;19043;51.012;5.648;2022-12-10T09:54:30;74.85;;;45.03;;
32633;SDS011;19043;51.012;5.648;2022-12-10T09:56:56;80.75;;;46.80;;
32633;SDS011;19043;51.012;5.648;2022-12-10T09:59:24;78.05;;;46.13;;
32633;SDS011;19043;51.012;5.648;2022-12-10T10:01:57;80.35;;;46.63;;
32633;SDS011;19043;51.012;5.648;2022-12-10T10:04:25;84.25;;;43.88;;
32633;SDS011;19043;51.012;5.648;2022-12-10T10:06:50;81.18;;;44.17;;
32633;SDS011;19043;51.012;5.648;2022-12-10T10:09:16;75.43;;;43.42;;
32633;SDS011;19043;51.012;5.648;2022-12-10T10:11:42;80.63;;;46.33;;
32633;SDS011;19043;51.012;5.648;2022-12-10T10:14:12;73.50;;;42.42;;
32633;SDS011;19043;51.012;5.648;2022-12-10T10:16:45;81.03;;;43.80;;
32633;SDS011;19043;51.012;5.648;2022-12-10T10:19:16;71.68;;;44.33;;
32633;SDS011;19043;51.012;5.648;2022-12-10T10:21:43;72.68;;;44.00;;
32633;SDS011;19043;51.012;5.648;2022-12-10T10:24:13;77.57;;;45.45;;
32633;SDS011;19043;51.012;5.648;2022-12-10T10:26:39;74.10;;;45.35;;
32633;SDS011;19043;51.012;5.648;2022-12-10T10:29:08;67.10;;;42.78;;
32633;SDS011;19043;51.012;5.648;2022-12-10T10:31:37;75.88;;;45.17;;
32633;SDS011;19043;51.012;5.648;2022-12-10T10:34:04;64.20;;;41.40;;
32633;SDS011;19043;51.012;5.648;2022-12-10T10:36:30;84.10;;;45.30;;
32633;SDS011;19043;51.012;5.648;2022-12-10T10:38:56;78.07;;;44.35;;
32633;SDS011;19043;51.012;5.648;2022-12-10T10:41:24;70.20;;;44.83;;
32633;SDS011;19043;51.012;5.648;2022-12-10T10:43:51;77.32;;;42.75;;
32633;SDS011;19043;51.012;5.648;2022-12-10T10:46:22;69.75;;;42.67;;
32633;SDS011;19043;51.012;5.648;2022-12-10T10:48:48;68.65;;;40.33;;
32633;SDS011;19043;51.012;5.648;2022-12-10T10:53:53;73.05;;;42.13;;
32633;SDS011;19043;51.012;5.648;2022-12-10T10:56:23;71.80;;;42.38;;
32633;SDS011;19043;51.012;5.648;2022-12-10T11:01:17;68.35;;;41.45;;
32633;SDS011;19043;51.012;5.648;2022-12-10T11:03:46;79.40;;;43.83;;
32633;SDS011;19043;51.012;5.648;2022-12-10T11:06:12;76.13;;;42.53;;
32633;SDS011;19043;51.012;5.648;2022-12-10T11:08:38;82.90;;;44.40;;
32633;SDS011;19043;51.012;5.648;2022-12-10T11:11:05;68.63;;;40.85;;
32633;SDS011;19043;51.012;5.648;2022-12-10T11:13:33;73.90;;;43.72;;
32633;SDS011;19043;51.012;5.648;2022-12-10T11:16:09;79.60;;;44.08;;
32633;SDS011;19043;51.012;5.648;2022-12-10T11:18:36;69.35;;;40.83;;
32633;SDS011;19043;51.012;5.648;2022-12-10T11:21:06;75.40;;;43.80;;
32633;SDS011;19043;51.012;5.648;2022-12-10T11:23:36;73.32;;;43.60;;
32633;SDS011;19043;51.012;5.648;2022-12-10T11:31:21;77.03;;;42.23;;
32633;SDS011;19043;51.012;5.648;2022-12-10T11:41:28;71.88;;;41.25;;
32633;SDS011;19043;51.012;5.648;2022-12-10T11:51:30;65.40;;;42.22;;
32633;SDS011;19043;51.012;5.648;2022-12-10T11:54:05;69.53;;;39.05;;
32633;SDS011;19043;51.012;5.648;2022-12-10T11:56:35;71.35;;;39.75;;
32633;SDS011;19043;51.012;5.648;2022-12-10T12:01:59;67.55;;;39.58;;
32633;SDS011;19043;51.012;5.648;2022-12-10T12:07:25;70.50;;;40.72;;
32633;SDS011;19043;51.012;5.648;2022-12-10T12:10:01;69.43;;;40.40;;
32633;SDS011;19043;51.012;5.648;2022-12-10T12:14:55;78.28;;;42.40;;
32633;SDS011;19043;51.012;5.648;2022-12-10T12:17:31;84.03;;;42.58;;
32633;SDS011;19043;51.012;5.648;2022-12-10T12:19:59;70.38;;;40.97;;
32633;SDS011;19043;51.012;5.648;2022-12-10T12:22:27;60.97;;;39.60;;
32633;SDS011;19043;51.012;5.648;2022-12-10T12:24:54;72.50;;;43.28;;
32633;SDS011;19043;51.012;5.648;2022-12-10T12:27:26;73.40;;;41.83;;
32633;SDS011;19043;51.012;5.648;2022-12-10T12:35:02;73.53;;;43.23;;
32633;SDS011;19043;51.012;5.648;2022-12-10T12:37:39;63.10;;;41.58;;
32633;SDS011;19043;51.012;5.648;2022-12-10T12:45:10;59.30;;;38.38;;
32633;SDS011;19043;51.012;5.648;2022-12-10T12:53:03;69.40;;;39.05;;
32633;SDS011;19043;51.012;5.648;2022-12-10T13:03:36;66.35;;;40.13;;
32633;SDS011;19043;51.012;5.648;2022-12-10T13:06:21;61.95;;;37.35;;
32633;SDS011;19043;51.012;5.648;2022-12-10T13:11:32;71.20;;;40.92;;
32633;SDS011;19043;51.012;5.648;2022-12-10T13:14:11;69.57;;;39.42;;
32633;SDS011;19043;51.012;5.648;2022-12-10T13:21:55;73.88;;;39.40;;
32633;SDS011;19043;51.012;5.648;2022-12-10T13:27:32;63.70;;;38.25;;
32633;SDS011;19043;51.012;5.648;2022-12-10T13:35:15;67.55;;;41.50;;
32633;SDS011;19043;51.012;5.648;2022-12-10T13:37:33;70.38;;;39.85;;
32633;SDS011;19043;51.012;5.648;2022-12-10T13:42:33;69.90;;;40.72;;
32633;SDS011;19043;51.012;5.648;2022-12-10T13:47:47;80.38;;;38.33;;
32633;SDS011;19043;51.012;5.648;2022-12-10T13:55:30;66.15;;;37.58;;
32633;SDS011;19043;51.012;5.648;2022-12-10T14:00:51;61.75;;;37.88;;
32633;SDS011;19043;51.012;5.648;2022-12-10T14:03:33;69.68;;;38.30;;
32633;SDS011;19043;51.012;5.648;2022-12-10T14:06:12;69.35;;;39.17;;
32633;SDS011;19043;51.012;5.648;2022-12-10T14:08:38;70.78;;;41.33;;
32633;SDS011;19043;51.012;5.648;2022-12-10T14:11:06;68.05;;;41.17;;
32633;SDS011;19043;51.012;5.648;2022-12-10T14:13:37;67.07;;;39.55;;
32633;SDS011;19043;51.012;5.648;2022-12-10T14:16:04;74.82;;;41.95;;
32633;SDS011;19043;51.012;5.648;2022-12-10T14:18:31;67.72;;;40.88;;
32633;SDS011;19043;51.012;5.648;2022-12-10T14:20:56;70.88;;;42.25;;
32633;SDS011;19043;51.012;5.648;2022-12-10T14:26:08;71.68;;;41.30;;
32633;SDS011;19043;51.012;5.648;2022-12-10T14:28:37;72.55;;;40.45;;
32633;SDS011;19043;51.012;5.648;2022-12-10T14:31:03;75.47;;;39.60;;
32633;SDS011;19043;51.012;5.648;2022-12-10T14:33:31;77.22;;;41.72;;
32633;SDS011;19043;51.012;5.648;2022-12-10T14:35:56;67.70;;;39.53;;
32633;SDS011;19043;51.012;5.648;2022-12-10T14:38:31;72.50;;;41.05;;
32633;SDS011;19043;51.012;5.648;2022-12-10T14:40:58;67.90;;;39.53;;
32633;SDS011;19043;51.012;5.648;2022-12-10T14:43:25;62.28;;;38.60;;
32633;SDS011;19043;51.012;5.648;2022-12-10T14:45:52;80.45;;;41.10;;
32633;SDS011;19043;51.012;5.648;2022-12-10T14:48:18;71.18;;;40.67;;
32633;SDS011;19043;51.012;5.648;2022-12-10T14:50:44;76.22;;;40.28;;
32633;SDS011;19043;51.012;5.648;2022-12-10T14:53:14;69.68;;;38.42;;
32633;SDS011;19043;51.012;5.648;2022-12-10T14:55:39;89.75;;;41.13;;
32633;SDS011;19043;51.012;5.648;2022-12-10T14:58:05;81.18;;;42.85;;
32633;SDS011;19043;51.012;5.648;2022-12-10T15:00:31;74.18;;;41.47;;
32633;SDS011;19043;51.012;5.648;2022-12-10T15:02:58;72.03;;;40.85;;
32633;SDS011;19043;51.012;5.648;2022-12-10T15:05:26;81.53;;;41.72;;
32633;SDS011;19043;51.012;5.648;2022-12-10T15:07:55;68.68;;;41.15;;
32633;SDS011;19043;51.012;5.648;2022-12-10T15:10:23;82.90;;;44.53;;
32633;SDS011;19043;51.012;5.648;2022-12-10T15:12:49;78.03;;;42.20;;
32633;SDS011;19043;51.012;5.648;2022-12-10T15:15:16;84.18;;;46.33;;
32633;SDS011;19043;51.012;5.648;2022-12-10T15:17:51;62.20;;;38.00;;
32633;SDS011;19043;51.012;5.648;2022-12-10T15:20:22;79.70;;;40.33;;
32633;SDS011;19043;51.012;5.648;2022-12-10T15:22:47;82.55;;;41.40;;
32633;SDS011;19043;51.012;5.648;2022-12-10T15:28:04;72.93;;;39.40;;
32633;SDS011;19043;51.012;5.648;2022-12-10T15:30:39;89.70;;;43.10;;
32633;SDS011;19043;51.012;5.648;2022-12-10T15:33:14;75.20;;;43.05;;
32633;SDS011;19043;51.012;5.648;2022-12-10T15:35:41;68.35;;;41.17;;
32633;SDS011;19043;51.012;5.648;2022-12-10T15:38:10;81.93;;;44.20;;
32633;SDS011;19043;51.012;5.648;2022-12-10T15:40:35;79.47;;;40.92;;
32633;SDS011;19043;51.012;5.648;2022-12-10T15:45:56;76.68;;;40.88;;
32633;SDS011;19043;51.012;5.648;2022-12-10T15:48:21;79.40;;;40.40;;
32633;SDS011;19043;51.012;5.648;2022-12-10T15:50:48;76.95;;;40.60;;
32633;SDS011;19043;51.012;5.648;2022-12-10T15:53:16;72.38;;;41.08;;
32633;SDS011;19043;51.012;5.648;2022-12-10T15:55:46;70.20;;;36.85;;
32633;SDS011;19043;51.012;5.648;2022-12-10T15:58:12;74.93;;;37.45;;
32633;SDS011;19043;51.012;5.648;2022-12-10T16:00:38;67.57;;;36.60;;
32633;SDS011;19043;51.012;5.648;2022-12-10T16:03:08;69.30;;;36.30;;
32633;SDS011;19043;51.012;5.648;2022-12-10T16:05:36;73.93;;;38.40;;
32633;SDS011;19043;51.012;5.648;2022-12-10T16:10:47;70.22;;;38.70;;
32633;SDS011;19043;51.012;5.648;2022-12-10T16:13:16;73.53;;;37.42;;
32633;SDS011;19043;51.012;5.648;2022-12-10T16:18:37;71.90;;;36.70;;
32633;SDS011;19043;51.012;5.648;2022-12-10T16:21:03;72.70;;;36.25;;
32633;SDS011;19043;51.012;5.648;2022-12-10T16:23:29;69.57;;;36.13;;